Meteo Giornale » Osservazioni meteo Svizzera » Samedan

ore: 05:50 - Osservazioni Meteo Samedan
Lat. 46° 32' N Lon. 9° 53' E Alt. 1706 metri s.l.m.

nebbia Europe/Zurich

-4 °C

Nebbia Congelantesi

Temp. 24 Ore

-4 °C

9 °C

Nord

1.8 Km/h

Dew point -4 °C

Umidità 100 %

Visibilità  0.1 Km

Il sole sorge alle ore 07:51

Il sole tramonta alle ore 18:17

Data e Ora Cielo e Fenomeni T °C DP °C Um. % Pres. hPa Vis. km Vento km/h
Oggi h: 05:50 nebbia Nebbia Congelantesi -4 -4 100 1018 0.1 N 1.8
Oggi h: 05:20 nebbia Nebbia Congelantesi -4 -4 100 1018 0.1 N 1.8
Oggi h: 04:50 nebbia Nebbia Congelantesi -3 -3 100 1018 0.25 N 0
Oggi h: 04:20 nebbia Nebbia Congelantesi -3 -3 100 1018 0.35 N 3.7
Oggi h: 03:50 nebbia Nebbia Congelantesi -4 -4 100 1018 0.2 N 1.8
Oggi h: 03:20 foschia Foschia -2 -2 100 1019 4 N 1.8
Oggi h: 02:50 sereno Sereno -2 -2 100 1019 10 N 1.8
Oggi h: 02:20 foschia Foschia -3 -3 100 1019 2 N 1.8
Oggi h: 01:50 nebbia Nebbia Congelantesi -3 -3 100 1019 0.6 N 1.8
Oggi h: 01:20 nebbia Nebbia Congelantesi -2 -2 100 1019 0.25 N 1.8
Oggi h: 00:50 sereno Sereno -2 -2 100 1019 10 N 1.8
Oggi h: 00:20 sereno Sereno -2 -2 100 1019 10 N 3.7
Ieri h: 23:50 sereno Sereno -3 -3 100 1019 10 N 3.7
Ieri h: 23:20 sereno Sereno -1 -1 100 1019 8 N 3.7
Ieri h: 22:50 sereno Sereno -1 -1 100 1019 10 N 1.8
Ieri h: 22:20 sereno Sereno -1 -1 100 1019 10 N 0
Ieri h: 21:50 sereno Sereno -0 -0 100 1019 10 N 1.8
Ieri h: 21:20 sereno Sereno 0 0 100 1019 10 N 5.5
Ieri h: 20:50 sereno Sereno -0 -0 100 1019 10 N 3.7
Ieri h: 20:20 sereno Sereno 1 1 100 1019 10 SO 7.4
Ieri h: 19:50 sereno Sereno 1 1 100 1019 10 N 3.7
Ieri h: 19:20 sereno Sereno 2 1 93 1019 10 N 5.5
Ieri h: 18:50 sereno Sereno 5 1 75 1018 10 N/NE 9.3
Ieri h: 17:50 poco_nuvoloso Poco Nuvoloso 6 1 70 1018 10 NE 11.1
Ieri h: 17:20 poco_nuvoloso Poco Nuvoloso 8 1 61 1018 10 N/NE 9.3
Ieri h: 16:20 molto_nuvoloso Molto Nuvoloso 9 1 57 1018 10 N/NE 9.3
Ieri h: 15:50 molto_nuvoloso Molto Nuvoloso 9 1 57 1018 10 N/NE 13
Ieri h: 15:20 molto_nuvoloso Molto Nuvoloso 9 1 57 1018 10 N/NE 11.1
Ieri h: 14:50 molto_nuvoloso Molto Nuvoloso 9 2 61 1019 10 NE 14.8
Ieri h: 14:20 molto_nuvoloso Molto Nuvoloso 8 1 61 1019 10 N/NE 16.7
Ieri h: 13:50 molto_nuvoloso Molto Nuvoloso 9 2 61 1019 10 N/NE 14.8
Ieri h: 13:20 molto_nuvoloso Molto Nuvoloso 9 3 66 1019 10 E/NE 13
Ieri h: 12:50 molto_nuvoloso Molto Nuvoloso 9 4 70 1019 10 E/NE 13
Ieri h: 12:20 nuvoloso Nuvoloso 7 5 87 1020 10 N 3.7
Ieri h: 11:50 molto_nuvoloso Molto Nuvoloso 6 5 93 1020 10 N 1.8
Ieri h: 11:20 molto_nuvoloso Molto Nuvoloso 6 4 86 1020 9 N 3.7
Ieri h: 10:50 molto_nuvoloso Molto Nuvoloso 6 5 93 1020 9 N 1.8
Ieri h: 10:20 molto_nuvoloso Molto Nuvoloso 5 5 100 1020 7 N 1.8
Ieri h: 09:50 molto_nuvoloso Molto Nuvoloso 4 4 100 1020 3 N 1.8
Ieri h: 09:20 molto_nuvoloso Molto Nuvoloso 4 4 100 1019 3 N 0
Ieri h: 08:50 coperto_pioggia Pioggia Debole 4 4 100 1019 3 N 1.8
Ieri h: 08:20 coperto_pioggia Pioggia Debole 3 3 100 1019 3 N 1.8
Ieri h: 06:50 coperto_pioggia Pioviggine Leggera 3 3 100 1019 10 N 1.8
Ieri h: 06:20 coperto_pioggia Pioggia Debole 3 3 100 1019 10 N 0
Ieri h: 05:50 coperto_pioggia Pioggia Debole 4 4 100 1019 10 N 1.8